sensor_id;sensor_type;location;lat;lon;timestamp;P1;durP1;ratioP1;P2;durP2;ratioP2
60935;SDS011;46804;51.786;19.520;2023-07-20T00:03:41;5.22;;;2.42;;
60935;SDS011;46804;51.786;19.520;2023-07-20T00:07:42;5.90;;;2.80;;
60935;SDS011;46804;51.786;19.520;2023-07-20T00:11:48;4.32;;;2.38;;
60935;SDS011;46804;51.786;19.520;2023-07-20T00:15:53;5.03;;;2.30;;
60935;SDS011;46804;51.786;19.520;2023-07-20T00:19:53;5.70;;;2.50;;
60935;SDS011;46804;51.786;19.520;2023-07-20T00:23:54;3.72;;;2.15;;
60935;SDS011;46804;51.786;19.520;2023-07-20T00:27:55;5.20;;;2.70;;
60935;SDS011;46804;51.786;19.520;2023-07-20T00:31:55;5.45;;;2.33;;
60935;SDS011;46804;51.786;19.520;2023-07-20T00:35:56;5.05;;;2.53;;
60935;SDS011;46804;51.786;19.520;2023-07-20T00:39:57;4.68;;;2.70;;
60935;SDS011;46804;51.786;19.520;2023-07-20T00:43:57;4.30;;;2.50;;
60935;SDS011;46804;51.786;19.520;2023-07-20T00:47:58;6.60;;;2.80;;
60935;SDS011;46804;51.786;19.520;2023-07-20T00:52:00;8.32;;;2.97;;
60935;SDS011;46804;51.786;19.520;2023-07-20T00:56:03;4.05;;;2.58;;
60935;SDS011;46804;51.786;19.520;2023-07-20T01:00:05;6.45;;;2.53;;
60935;SDS011;46804;51.786;19.520;2023-07-20T01:04:06;5.43;;;2.42;;
60935;SDS011;46804;51.786;19.520;2023-07-20T01:08:10;4.20;;;2.55;;
60935;SDS011;46804;51.786;19.520;2023-07-20T01:12:39;3.83;;;2.00;;
60935;SDS011;46804;51.786;19.520;2023-07-20T01:16:42;3.92;;;2.30;;
60935;SDS011;46804;51.786;19.520;2023-07-20T01:20:43;6.93;;;2.30;;
60935;SDS011;46804;51.786;19.520;2023-07-20T01:24:46;5.35;;;2.10;;
60935;SDS011;46804;51.786;19.520;2023-07-20T01:33:12;4.50;;;2.30;;
60935;SDS011;46804;51.786;19.520;2023-07-20T01:37:14;4.70;;;2.28;;
60935;SDS011;46804;51.786;19.520;2023-07-20T01:41:17;4.75;;;2.55;;
60935;SDS011;46804;51.786;19.520;2023-07-20T01:45:18;7.25;;;2.45;;
60935;SDS011;46804;51.786;19.520;2023-07-20T01:49:19;3.85;;;2.00;;
60935;SDS011;46804;51.786;19.520;2023-07-20T01:53:20;7.43;;;2.22;;
60935;SDS011;46804;51.786;19.520;2023-07-20T01:57:21;4.15;;;2.08;;
60935;SDS011;46804;51.786;19.520;2023-07-20T02:01:22;5.22;;;2.58;;
60935;SDS011;46804;51.786;19.520;2023-07-20T02:05:22;5.53;;;2.50;;
60935;SDS011;46804;51.786;19.520;2023-07-20T02:09:23;4.30;;;2.58;;
60935;SDS011;46804;51.786;19.520;2023-07-20T02:13:24;4.95;;;2.58;;
60935;SDS011;46804;51.786;19.520;2023-07-20T02:17:24;8.05;;;2.45;;
60935;SDS011;46804;51.786;19.520;2023-07-20T02:21:25;4.80;;;2.75;;
60935;SDS011;46804;51.786;19.520;2023-07-20T02:25:26;4.15;;;2.53;;
60935;SDS011;46804;51.786;19.520;2023-07-20T02:29:26;6.28;;;2.65;;
60935;SDS011;46804;51.786;19.520;2023-07-20T02:33:27;5.88;;;2.42;;
60935;SDS011;46804;51.786;19.520;2023-07-20T02:37:28;3.83;;;2.42;;
60935;SDS011;46804;51.786;19.520;2023-07-20T02:41:30;4.68;;;2.63;;
60935;SDS011;46804;51.786;19.520;2023-07-20T02:45:31;8.13;;;3.20;;
60935;SDS011;46804;51.786;19.520;2023-07-20T02:49:32;11.05;;;3.25;;
60935;SDS011;46804;51.786;19.520;2023-07-20T02:53:33;7.13;;;3.05;;
60935;SDS011;46804;51.786;19.520;2023-07-20T02:57:34;7.13;;;3.33;;
60935;SDS011;46804;51.786;19.520;2023-07-20T03:01:34;6.43;;;3.50;;
60935;SDS011;46804;51.786;19.520;2023-07-20T03:05:35;5.50;;;3.03;;
60935;SDS011;46804;51.786;19.520;2023-07-20T03:09:39;4.82;;;2.90;;
60935;SDS011;46804;51.786;19.520;2023-07-20T03:13:41;7.63;;;3.42;;
60935;SDS011;46804;51.786;19.520;2023-07-20T03:17:42;7.07;;;3.40;;
60935;SDS011;46804;51.786;19.520;2023-07-20T03:21:43;6.82;;;3.45;;
60935;SDS011;46804;51.786;19.520;2023-07-20T03:25:44;5.60;;;3.17;;
60935;SDS011;46804;51.786;19.520;2023-07-20T03:29:44;7.30;;;3.10;;
60935;SDS011;46804;51.786;19.520;2023-07-20T03:33:45;5.93;;;3.15;;
60935;SDS011;46804;51.786;19.520;2023-07-20T03:37:46;4.53;;;3.15;;
60935;SDS011;46804;51.786;19.520;2023-07-20T03:41:46;8.32;;;3.78;;
60935;SDS011;46804;51.786;19.520;2023-07-20T03:45:47;4.97;;;3.30;;
60935;SDS011;46804;51.786;19.520;2023-07-20T03:49:48;6.68;;;3.50;;
60935;SDS011;46804;51.786;19.520;2023-07-20T03:53:49;5.95;;;3.50;;
60935;SDS011;46804;51.786;19.520;2023-07-20T03:57:49;7.80;;;3.70;;
60935;SDS011;46804;51.786;19.520;2023-07-20T04:01:51;6.25;;;3.50;;
60935;SDS011;46804;51.786;19.520;2023-07-20T04:05:53;8.13;;;3.80;;
60935;SDS011;46804;51.786;19.520;2023-07-20T04:09:55;7.25;;;3.80;;
60935;SDS011;46804;51.786;19.520;2023-07-20T04:13:55;5.35;;;3.53;;
60935;SDS011;46804;51.786;19.520;2023-07-20T04:17:56;5.68;;;3.78;;
60935;SDS011;46804;51.786;19.520;2023-07-20T04:21:57;6.80;;;3.63;;
60935;SDS011;46804;51.786;19.520;2023-07-20T04:25:58;7.78;;;4.15;;
60935;SDS011;46804;51.786;19.520;2023-07-20T04:29:59;6.30;;;3.70;;
60935;SDS011;46804;51.786;19.520;2023-07-20T04:34:04;9.85;;;3.90;;
60935;SDS011;46804;51.786;19.520;2023-07-20T04:38:04;5.80;;;4.23;;
60935;SDS011;46804;51.786;19.520;2023-07-20T04:42:05;6.20;;;3.78;;
60935;SDS011;46804;51.786;19.520;2023-07-20T04:46:06;6.53;;;4.00;;
60935;SDS011;46804;51.786;19.520;2023-07-20T04:50:07;10.80;;;4.28;;
60935;SDS011;46804;51.786;19.520;2023-07-20T04:54:08;8.30;;;3.90;;
60935;SDS011;46804;51.786;19.520;2023-07-20T04:58:08;6.53;;;3.92;;
60935;SDS011;46804;51.786;19.520;2023-07-20T05:02:09;7.63;;;4.22;;
60935;SDS011;46804;51.786;19.520;2023-07-20T05:06:10;7.63;;;4.38;;
60935;SDS011;46804;51.786;19.520;2023-07-20T05:10:10;7.60;;;3.97;;
60935;SDS011;46804;51.786;19.520;2023-07-20T05:14:11;6.63;;;4.18;;
60935;SDS011;46804;51.786;19.520;2023-07-20T05:18:12;8.57;;;4.30;;
60935;SDS011;46804;51.786;19.520;2023-07-20T05:22:13;9.68;;;4.50;;
60935;SDS011;46804;51.786;19.520;2023-07-20T05:26:14;6.07;;;4.05;;
60935;SDS011;46804;51.786;19.520;2023-07-20T05:30:15;6.57;;;4.70;;
60935;SDS011;46804;51.786;19.520;2023-07-20T05:34:16;6.28;;;4.07;;
60935;SDS011;46804;51.786;19.520;2023-07-20T05:38:17;8.30;;;4.05;;
60935;SDS011;46804;51.786;19.520;2023-07-20T05:42:18;6.18;;;4.20;;
60935;SDS011;46804;51.786;19.520;2023-07-20T05:46:18;7.85;;;4.45;;
60935;SDS011;46804;51.786;19.520;2023-07-20T05:50:19;9.05;;;4.15;;
60935;SDS011;46804;51.786;19.520;2023-07-20T05:54:20;6.57;;;3.95;;
60935;SDS011;46804;51.786;19.520;2023-07-20T05:58:20;8.50;;;4.30;;
60935;SDS011;46804;51.786;19.520;2023-07-20T06:02:21;6.53;;;4.10;;
60935;SDS011;46804;51.786;19.520;2023-07-20T06:06:22;6.93;;;4.32;;
60935;SDS011;46804;51.786;19.520;2023-07-20T06:10:23;6.20;;;3.65;;
60935;SDS011;46804;51.786;19.520;2023-07-20T06:14:23;7.90;;;4.43;;
60935;SDS011;46804;51.786;19.520;2023-07-20T06:18:24;4.88;;;3.78;;
60935;SDS011;46804;51.786;19.520;2023-07-20T06:22:24;6.90;;;4.22;;
60935;SDS011;46804;51.786;19.520;2023-07-20T06:26:25;6.30;;;3.45;;
60935;SDS011;46804;51.786;19.520;2023-07-20T06:30:26;8.43;;;4.25;;
60935;SDS011;46804;51.786;19.520;2023-07-20T06:34:26;6.00;;;3.72;;
60935;SDS011;46804;51.786;19.520;2023-07-20T06:38:27;6.82;;;3.55;;
60935;SDS011;46804;51.786;19.520;2023-07-20T06:42:28;5.28;;;3.55;;
60935;SDS011;46804;51.786;19.520;2023-07-20T06:46:29;7.05;;;4.05;;
60935;SDS011;46804;51.786;19.520;2023-07-20T06:50:30;9.05;;;4.40;;
60935;SDS011;46804;51.786;19.520;2023-07-20T06:54:30;9.07;;;3.90;;
60935;SDS011;46804;51.786;19.520;2023-07-20T06:58:30;9.20;;;4.00;;
60935;SDS011;46804;51.786;19.520;2023-07-20T07:02:31;7.35;;;4.05;;
60935;SDS011;46804;51.786;19.520;2023-07-20T07:06:32;5.35;;;3.75;;
60935;SDS011;46804;51.786;19.520;2023-07-20T07:10:35;6.82;;;3.75;;
60935;SDS011;46804;51.786;19.520;2023-07-20T07:14:36;9.48;;;4.22;;
60935;SDS011;46804;51.786;19.520;2023-07-20T07:18:36;11.82;;;3.90;;
60935;SDS011;46804;51.786;19.520;2023-07-20T07:22:37;7.72;;;3.92;;
60935;SDS011;46804;51.786;19.520;2023-07-20T07:26:38;8.02;;;3.88;;
60935;SDS011;46804;51.786;19.520;2023-07-20T07:30:39;7.78;;;4.15;;
60935;SDS011;46804;51.786;19.520;2023-07-20T07:34:40;6.07;;;3.75;;
60935;SDS011;46804;51.786;19.520;2023-07-20T07:38:41;6.05;;;3.75;;
60935;SDS011;46804;51.786;19.520;2023-07-20T07:42:41;6.45;;;3.75;;
60935;SDS011;46804;51.786;19.520;2023-07-20T07:46:42;9.95;;;3.88;;
60935;SDS011;46804;51.786;19.520;2023-07-20T07:50:43;7.47;;;4.07;;
60935;SDS011;46804;51.786;19.520;2023-07-20T07:54:44;6.40;;;3.80;;
60935;SDS011;46804;51.786;19.520;2023-07-20T07:58:44;6.85;;;3.65;;
60935;SDS011;46804;51.786;19.520;2023-07-20T08:02:45;6.80;;;3.60;;
60935;SDS011;46804;51.786;19.520;2023-07-20T08:06:47;9.37;;;4.30;;
60935;SDS011;46804;51.786;19.520;2023-07-20T08:10:48;7.57;;;3.60;;
60935;SDS011;46804;51.786;19.520;2023-07-20T08:14:49;5.15;;;3.30;;
60935;SDS011;46804;51.786;19.520;2023-07-20T08:18:49;4.97;;;3.28;;
60935;SDS011;46804;51.786;19.520;2023-07-20T08:22:50;5.20;;;2.90;;
60935;SDS011;46804;51.786;19.520;2023-07-20T08:26:51;5.78;;;4.22;;
60935;SDS011;46804;51.786;19.520;2023-07-20T08:30:52;6.05;;;3.28;;
60935;SDS011;46804;51.786;19.520;2023-07-20T08:34:52;5.03;;;3.22;;
60935;SDS011;46804;51.786;19.520;2023-07-20T08:38:54;6.15;;;4.40;;
60935;SDS011;46804;51.786;19.520;2023-07-20T08:42:54;8.30;;;4.75;;
60935;SDS011;46804;51.786;19.520;2023-07-20T08:46:58;6.82;;;4.57;;
60935;SDS011;46804;51.786;19.520;2023-07-20T08:51:04;5.28;;;4.10;;
60935;SDS011;46804;51.786;19.520;2023-07-20T08:55:05;7.03;;;4.30;;
60935;SDS011;46804;51.786;19.520;2023-07-20T08:59:07;7.85;;;5.15;;
60935;SDS011;46804;51.786;19.520;2023-07-20T09:03:08;5.13;;;3.78;;
60935;SDS011;46804;51.786;19.520;2023-07-20T09:07:10;7.10;;;3.90;;
60935;SDS011;46804;51.786;19.520;2023-07-20T09:11:14;8.82;;;3.67;;
60935;SDS011;46804;51.786;19.520;2023-07-20T09:15:15;7.97;;;2.90;;
60935;SDS011;46804;51.786;19.520;2023-07-20T09:19:17;5.68;;;3.10;;
60935;SDS011;46804;51.786;19.520;2023-07-20T09:23:18;5.20;;;3.05;;
60935;SDS011;46804;51.786;19.520;2023-07-20T09:27:19;5.07;;;2.80;;
60935;SDS011;46804;51.786;19.520;2023-07-20T09:31:20;3.30;;;2.30;;
60935;SDS011;46804;51.786;19.520;2023-07-20T09:35:22;4.88;;;2.33;;
60935;SDS011;46804;51.786;19.520;2023-07-20T09:39:23;6.85;;;2.60;;
60935;SDS011;46804;51.786;19.520;2023-07-20T09:43:23;3.78;;;2.53;;
60935;SDS011;46804;51.786;19.520;2023-07-20T09:47:25;3.83;;;2.38;;
60935;SDS011;46804;51.786;19.520;2023-07-20T09:51:27;5.78;;;2.40;;
60935;SDS011;46804;51.786;19.520;2023-07-20T09:55:28;6.32;;;2.42;;
60935;SDS011;46804;51.786;19.520;2023-07-20T09:59:29;6.03;;;2.50;;
60935;SDS011;46804;51.786;19.520;2023-07-20T10:03:30;4.13;;;2.15;;
60935;SDS011;46804;51.786;19.520;2023-07-20T10:07:32;4.93;;;2.08;;
60935;SDS011;46804;51.786;19.520;2023-07-20T10:11:36;4.68;;;2.30;;
60935;SDS011;46804;51.786;19.520;2023-07-20T10:15:40;4.68;;;2.50;;
60935;SDS011;46804;51.786;19.520;2023-07-20T10:19:49;5.28;;;2.60;;
60935;SDS011;46804;51.786;19.520;2023-07-20T10:23:55;5.07;;;2.20;;
60935;SDS011;46804;51.786;19.520;2023-07-20T10:27:57;7.60;;;2.67;;
60935;SDS011;46804;51.786;19.520;2023-07-20T10:31:59;6.57;;;2.30;;
60935;SDS011;46804;51.786;19.520;2023-07-20T10:36:01;3.92;;;2.30;;
60935;SDS011;46804;51.786;19.520;2023-07-20T10:44:31;6.93;;;2.00;;
60935;SDS011;46804;51.786;19.520;2023-07-20T10:48:31;4.00;;;2.00;;
60935;SDS011;46804;51.786;19.520;2023-07-20T10:52:41;8.35;;;2.30;;
60935;SDS011;46804;51.786;19.520;2023-07-20T10:56:42;9.25;;;2.22;;
60935;SDS011;46804;51.786;19.520;2023-07-20T11:00:57;3.50;;;1.88;;
60935;SDS011;46804;51.786;19.520;2023-07-20T11:04:59;2.05;;;1.50;;
60935;SDS011;46804;51.786;19.520;2023-07-20T11:13:20;1.45;;;1.27;;
60935;SDS011;46804;51.786;19.520;2023-07-20T11:17:31;1.77;;;1.40;;
60935;SDS011;46804;51.786;19.520;2023-07-20T11:21:40;10.10;;;3.15;;
60935;SDS011;46804;51.786;19.520;2023-07-20T11:25:41;10.45;;;2.22;;
60935;SDS011;46804;51.786;19.520;2023-07-20T11:29:42;3.78;;;1.88;;
60935;SDS011;46804;51.786;19.520;2023-07-20T11:33:42;5.75;;;2.10;;
60935;SDS011;46804;51.786;19.520;2023-07-20T11:37:43;2.92;;;1.83;;
60935;SDS011;46804;51.786;19.520;2023-07-20T11:41:46;4.45;;;2.13;;
60935;SDS011;46804;51.786;19.520;2023-07-20T11:45:47;7.65;;;3.00;;
60935;SDS011;46804;51.786;19.520;2023-07-20T11:49:48;12.07;;;2.50;;
60935;SDS011;46804;51.786;19.520;2023-07-20T11:53:55;7.78;;;2.50;;
60935;SDS011;46804;51.786;19.520;2023-07-20T11:58:05;8.95;;;2.60;;
60935;SDS011;46804;51.786;19.520;2023-07-20T12:02:07;6.65;;;2.60;;
60935;SDS011;46804;51.786;19.520;2023-07-20T12:06:08;5.82;;;2.55;;
60935;SDS011;46804;51.786;19.520;2023-07-20T12:10:14;4.90;;;2.53;;
60935;SDS011;46804;51.786;19.520;2023-07-20T12:14:14;4.50;;;2.60;;
60935;SDS011;46804;51.786;19.520;2023-07-20T12:18:16;3.35;;;2.25;;
60935;SDS011;46804;51.786;19.520;2023-07-20T12:22:17;5.32;;;2.65;;
60935;SDS011;46804;51.786;19.520;2023-07-20T12:26:17;5.78;;;2.90;;
60935;SDS011;46804;51.786;19.520;2023-07-20T12:30:22;6.35;;;3.10;;
60935;SDS011;46804;51.786;19.520;2023-07-20T12:34:23;4.97;;;3.00;;
60935;SDS011;46804;51.786;19.520;2023-07-20T12:38:23;8.90;;;3.40;;
60935;SDS011;46804;51.786;19.520;2023-07-20T12:42:24;6.38;;;3.70;;
60935;SDS011;46804;51.786;19.520;2023-07-20T12:46:25;5.88;;;3.22;;
60935;SDS011;46804;51.786;19.520;2023-07-20T12:50:26;5.93;;;3.20;;
60935;SDS011;46804;51.786;19.520;2023-07-20T12:54:27;5.75;;;3.47;;
60935;SDS011;46804;51.786;19.520;2023-07-20T12:58:27;5.57;;;3.67;;
60935;SDS011;46804;51.786;19.520;2023-07-20T13:02:28;5.50;;;3.33;;
60935;SDS011;46804;51.786;19.520;2023-07-20T13:06:28;5.93;;;2.33;;
60935;SDS011;46804;51.786;19.520;2023-07-20T13:10:29;2.28;;;1.48;;
60935;SDS011;46804;51.786;19.520;2023-07-20T13:14:30;3.20;;;1.75;;
60935;SDS011;46804;51.786;19.520;2023-07-20T13:18:31;3.45;;;1.63;;
60935;SDS011;46804;51.786;19.520;2023-07-20T13:22:31;4.38;;;1.88;;
60935;SDS011;46804;51.786;19.520;2023-07-20T13:26:32;5.97;;;1.80;;
60935;SDS011;46804;51.786;19.520;2023-07-20T13:30:33;4.55;;;2.20;;
60935;SDS011;46804;51.786;19.520;2023-07-20T13:34:34;2.95;;;1.85;;
60935;SDS011;46804;51.786;19.520;2023-07-20T13:38:35;2.38;;;1.73;;
60935;SDS011;46804;51.786;19.520;2023-07-20T13:42:36;3.78;;;2.00;;
60935;SDS011;46804;51.786;19.520;2023-07-20T13:46:36;3.75;;;1.90;;
60935;SDS011;46804;51.786;19.520;2023-07-20T13:50:37;4.03;;;2.30;;
60935;SDS011;46804;51.786;19.520;2023-07-20T13:54:38;3.63;;;2.00;;
60935;SDS011;46804;51.786;19.520;2023-07-20T13:58:38;3.83;;;2.30;;
60935;SDS011;46804;51.786;19.520;2023-07-20T14:02:39;6.20;;;2.58;;
60935;SDS011;46804;51.786;19.520;2023-07-20T14:06:40;3.25;;;2.20;;
60935;SDS011;46804;51.786;19.520;2023-07-20T14:10:41;2.97;;;1.90;;
60935;SDS011;46804;51.786;19.520;2023-07-20T14:14:41;2.90;;;1.90;;
60935;SDS011;46804;51.786;19.520;2023-07-20T14:18:42;2.47;;;2.00;;
60935;SDS011;46804;51.786;19.520;2023-07-20T14:22:43;3.63;;;1.80;;
60935;SDS011;46804;51.786;19.520;2023-07-20T14:26:44;3.10;;;1.80;;
60935;SDS011;46804;51.786;19.520;2023-07-20T14:30:45;4.20;;;1.90;;
60935;SDS011;46804;51.786;19.520;2023-07-20T14:34:46;4.25;;;1.80;;
60935;SDS011;46804;51.786;19.520;2023-07-20T14:38:47;1.90;;;1.60;;
60935;SDS011;46804;51.786;19.520;2023-07-20T14:42:47;4.18;;;1.80;;
60935;SDS011;46804;51.786;19.520;2023-07-20T14:46:48;2.97;;;1.77;;
60935;SDS011;46804;51.786;19.520;2023-07-20T14:50:49;2.15;;;1.52;;
60935;SDS011;46804;51.786;19.520;2023-07-20T14:54:49;5.05;;;1.60;;
60935;SDS011;46804;51.786;19.520;2023-07-20T14:58:50;2.72;;;1.50;;
60935;SDS011;46804;51.786;19.520;2023-07-20T15:02:51;2.10;;;1.48;;
60935;SDS011;46804;51.786;19.520;2023-07-20T15:06:56;2.05;;;1.50;;
60935;SDS011;46804;51.786;19.520;2023-07-20T15:10:57;1.92;;;1.58;;
60935;SDS011;46804;51.786;19.520;2023-07-20T15:19:08;3.28;;;1.30;;
60935;SDS011;46804;51.786;19.520;2023-07-20T15:23:09;1.33;;;1.23;;
60935;SDS011;46804;51.786;19.520;2023-07-20T15:27:10;1.63;;;1.20;;
60935;SDS011;46804;51.786;19.520;2023-07-20T15:31:11;2.42;;;1.60;;
60935;SDS011;46804;51.786;19.520;2023-07-20T15:35:11;5.25;;;1.50;;
60935;SDS011;46804;51.786;19.520;2023-07-20T15:39:12;1.83;;;1.40;;
60935;SDS011;46804;51.786;19.520;2023-07-20T15:43:13;1.98;;;1.20;;
60935;SDS011;46804;51.786;19.520;2023-07-20T15:47:13;2.20;;;1.40;;
60935;SDS011;46804;51.786;19.520;2023-07-20T15:51:14;1.88;;;1.60;;
60935;SDS011;46804;51.786;19.520;2023-07-20T15:55:15;2.33;;;1.50;;
60935;SDS011;46804;51.786;19.520;2023-07-20T15:59:16;2.25;;;1.55;;
60935;SDS011;46804;51.786;19.520;2023-07-20T16:03:17;2.67;;;1.77;;
60935;SDS011;46804;51.786;19.520;2023-07-20T16:07:18;3.08;;;1.60;;
60935;SDS011;46804;51.786;19.520;2023-07-20T16:11:19;1.67;;;1.48;;
60935;SDS011;46804;51.786;19.520;2023-07-20T16:15:22;2.33;;;1.73;;
60935;SDS011;46804;51.786;19.520;2023-07-20T16:19:23;2.05;;;1.63;;
60935;SDS011;46804;51.786;19.520;2023-07-20T16:23:23;2.53;;;1.60;;
60935;SDS011;46804;51.786;19.520;2023-07-20T16:27:24;3.55;;;1.75;;
60935;SDS011;46804;51.786;19.520;2023-07-20T16:31:25;2.30;;;1.70;;
60935;SDS011;46804;51.786;19.520;2023-07-20T16:35:26;3.08;;;1.60;;
60935;SDS011;46804;51.786;19.520;2023-07-20T16:39:26;2.53;;;1.50;;
60935;SDS011;46804;51.786;19.520;2023-07-20T16:43:27;3.80;;;1.90;;
60935;SDS011;46804;51.786;19.520;2023-07-20T16:47:28;1.92;;;1.48;;
60935;SDS011;46804;51.786;19.520;2023-07-20T16:51:28;2.50;;;1.55;;
60935;SDS011;46804;51.786;19.520;2023-07-20T16:55:29;3.13;;;1.90;;
60935;SDS011;46804;51.786;19.520;2023-07-20T16:59:30;2.90;;;1.60;;
60935;SDS011;46804;51.786;19.520;2023-07-20T17:03:32;2.33;;;1.80;;
60935;SDS011;46804;51.786;19.520;2023-07-20T17:07:33;4.15;;;1.80;;
60935;SDS011;46804;51.786;19.520;2023-07-20T17:11:34;4.72;;;1.65;;
60935;SDS011;46804;51.786;19.520;2023-07-20T17:15:34;1.77;;;1.60;;
60935;SDS011;46804;51.786;19.520;2023-07-20T17:19:35;2.85;;;1.60;;
60935;SDS011;46804;51.786;19.520;2023-07-20T17:23:36;4.40;;;1.75;;
60935;SDS011;46804;51.786;19.520;2023-07-20T17:27:37;5.30;;;2.70;;
60935;SDS011;46804;51.786;19.520;2023-07-20T17:31:38;3.75;;;1.70;;
60935;SDS011;46804;51.786;19.520;2023-07-20T17:35:39;4.32;;;2.00;;
60935;SDS011;46804;51.786;19.520;2023-07-20T17:39:40;11.43;;;6.45;;
60935;SDS011;46804;51.786;19.520;2023-07-20T17:43:41;3.08;;;1.70;;
60935;SDS011;46804;51.786;19.520;2023-07-20T17:47:41;3.05;;;1.80;;
60935;SDS011;46804;51.786;19.520;2023-07-20T17:51:42;3.97;;;2.17;;
60935;SDS011;46804;51.786;19.520;2023-07-20T17:55:43;5.38;;;1.80;;
60935;SDS011;46804;51.786;19.520;2023-07-20T17:59:44;3.58;;;1.63;;
60935;SDS011;46804;51.786;19.520;2023-07-20T18:03:45;2.42;;;1.70;;
60935;SDS011;46804;51.786;19.520;2023-07-20T18:07:45;2.13;;;1.70;;
60935;SDS011;46804;51.786;19.520;2023-07-20T18:11:46;7.13;;;2.05;;
60935;SDS011;46804;51.786;19.520;2023-07-20T18:15:53;2.88;;;1.70;;
60935;SDS011;46804;51.786;19.520;2023-07-20T18:19:54;3.22;;;1.98;;
60935;SDS011;46804;51.786;19.520;2023-07-20T18:23:55;2.90;;;1.80;;
60935;SDS011;46804;51.786;19.520;2023-07-20T18:27:56;1.77;;;1.60;;
60935;SDS011;46804;51.786;19.520;2023-07-20T18:31:56;2.75;;;1.90;;
60935;SDS011;46804;51.786;19.520;2023-07-20T18:35:57;1.77;;;1.50;;
60935;SDS011;46804;51.786;19.520;2023-07-20T18:39:58;2.22;;;1.60;;
60935;SDS011;46804;51.786;19.520;2023-07-20T18:43:59;2.67;;;1.65;;
60935;SDS011;46804;51.786;19.520;2023-07-20T18:47:59;5.07;;;1.80;;
60935;SDS011;46804;51.786;19.520;2023-07-20T18:52:00;2.00;;;1.67;;
60935;SDS011;46804;51.786;19.520;2023-07-20T18:56:01;3.65;;;2.00;;
60935;SDS011;46804;51.786;19.520;2023-07-20T19:00:03;2.42;;;1.70;;
60935;SDS011;46804;51.786;19.520;2023-07-20T19:04:07;2.75;;;1.60;;
60935;SDS011;46804;51.786;19.520;2023-07-20T19:08:07;3.10;;;1.85;;
60935;SDS011;46804;51.786;19.520;2023-07-20T19:12:08;2.80;;;1.90;;
60935;SDS011;46804;51.786;19.520;2023-07-20T19:16:09;4.47;;;1.67;;
60935;SDS011;46804;51.786;19.520;2023-07-20T19:20:10;3.13;;;2.00;;
60935;SDS011;46804;51.786;19.520;2023-07-20T19:24:15;6.70;;;1.95;;
60935;SDS011;46804;51.786;19.520;2023-07-20T19:28:16;6.10;;;2.28;;
60935;SDS011;46804;51.786;19.520;2023-07-20T19:32:16;4.35;;;2.38;;
60935;SDS011;46804;51.786;19.520;2023-07-20T19:36:17;6.15;;;2.28;;
60935;SDS011;46804;51.786;19.520;2023-07-20T19:40:20;7.22;;;2.60;;
60935;SDS011;46804;51.786;19.520;2023-07-20T19:44:20;3.85;;;2.22;;
60935;SDS011;46804;51.786;19.520;2023-07-20T19:48:22;7.78;;;2.83;;
60935;SDS011;46804;51.786;19.520;2023-07-20T19:52:23;7.50;;;2.50;;
60935;SDS011;46804;51.786;19.520;2023-07-20T19:56:24;5.45;;;2.70;;
60935;SDS011;46804;51.786;19.520;2023-07-20T20:00:25;6.57;;;2.70;;
60935;SDS011;46804;51.786;19.520;2023-07-20T20:04:26;6.45;;;2.55;;
60935;SDS011;46804;51.786;19.520;2023-07-20T20:08:27;4.07;;;2.60;;
60935;SDS011;46804;51.786;19.520;2023-07-20T20:12:29;6.72;;;3.20;;
60935;SDS011;46804;51.786;19.520;2023-07-20T20:16:29;6.57;;;3.05;;
60935;SDS011;46804;51.786;19.520;2023-07-20T20:20:30;6.57;;;2.80;;
60935;SDS011;46804;51.786;19.520;2023-07-20T20:24:35;6.32;;;2.53;;
60935;SDS011;46804;51.786;19.520;2023-07-20T20:28:36;6.20;;;2.70;;
60935;SDS011;46804;51.786;19.520;2023-07-20T20:32:37;4.95;;;2.35;;
60935;SDS011;46804;51.786;19.520;2023-07-20T20:36:42;6.32;;;3.15;;
60935;SDS011;46804;51.786;19.520;2023-07-20T20:40:44;5.07;;;2.63;;
60935;SDS011;46804;51.786;19.520;2023-07-20T20:44:46;4.88;;;3.33;;
60935;SDS011;46804;51.786;19.520;2023-07-20T20:48:47;6.32;;;3.05;;
60935;SDS011;46804;51.786;19.520;2023-07-20T20:52:47;4.18;;;2.90;;
60935;SDS011;46804;51.786;19.520;2023-07-20T20:56:49;11.23;;;3.83;;
60935;SDS011;46804;51.786;19.520;2023-07-20T21:00:50;9.45;;;4.00;;
60935;SDS011;46804;51.786;19.520;2023-07-20T21:04:51;6.57;;;3.80;;
60935;SDS011;46804;51.786;19.520;2023-07-20T21:08:51;8.73;;;4.00;;
60935;SDS011;46804;51.786;19.520;2023-07-20T21:12:53;8.10;;;3.92;;
60935;SDS011;46804;51.786;19.520;2023-07-20T21:16:54;10.32;;;3.85;;
60935;SDS011;46804;51.786;19.520;2023-07-20T21:20:54;8.77;;;3.58;;
60935;SDS011;46804;51.786;19.520;2023-07-20T21:24:55;5.40;;;3.05;;
60935;SDS011;46804;51.786;19.520;2023-07-20T21:28:56;6.90;;;3.55;;
60935;SDS011;46804;51.786;19.520;2023-07-20T21:32:56;6.90;;;3.38;;
60935;SDS011;46804;51.786;19.520;2023-07-20T21:36:57;8.45;;;4.55;;
60935;SDS011;46804;51.786;19.520;2023-07-20T21:40:58;8.63;;;3.85;;
60935;SDS011;46804;51.786;19.520;2023-07-20T21:44:59;5.22;;;3.63;;
60935;SDS011;46804;51.786;19.520;2023-07-20T21:49:00;15.45;;;5.57;;
60935;SDS011;46804;51.786;19.520;2023-07-20T21:53:01;7.80;;;4.25;;
60935;SDS011;46804;51.786;19.520;2023-07-20T21:57:01;6.43;;;3.75;;
60935;SDS011;46804;51.786;19.520;2023-07-20T22:01:02;12.43;;;5.32;;
60935;SDS011;46804;51.786;19.520;2023-07-20T22:05:04;10.18;;;4.18;;
60935;SDS011;46804;51.786;19.520;2023-07-20T22:09:05;6.05;;;4.03;;
60935;SDS011;46804;51.786;19.520;2023-07-20T22:13:06;10.85;;;4.28;;
60935;SDS011;46804;51.786;19.520;2023-07-20T22:17:07;7.65;;;4.60;;
60935;SDS011;46804;51.786;19.520;2023-07-20T22:21:09;7.88;;;4.40;;
60935;SDS011;46804;51.786;19.520;2023-07-20T22:25:11;9.55;;;4.55;;
60935;SDS011;46804;51.786;19.520;2023-07-20T22:29:12;8.13;;;4.38;;
60935;SDS011;46804;51.786;19.520;2023-07-20T22:33:13;8.98;;;4.45;;
60935;SDS011;46804;51.786;19.520;2023-07-20T22:37:14;10.07;;;4.65;;
60935;SDS011;46804;51.786;19.520;2023-07-20T22:41:15;10.25;;;4.70;;
60935;SDS011;46804;51.786;19.520;2023-07-20T22:45:16;10.15;;;4.57;;
60935;SDS011;46804;51.786;19.520;2023-07-20T22:49:16;8.43;;;4.28;;
60935;SDS011;46804;51.786;19.520;2023-07-20T22:53:17;7.60;;;4.53;;
60935;SDS011;46804;51.786;19.520;2023-07-20T22:57:18;7.45;;;4.45;;
60935;SDS011;46804;51.786;19.520;2023-07-20T23:01:18;9.18;;;4.28;;
60935;SDS011;46804;51.786;19.520;2023-07-20T23:05:19;7.75;;;4.60;;
60935;SDS011;46804;51.786;19.520;2023-07-20T23:09:20;7.40;;;4.07;;
60935;SDS011;46804;51.786;19.520;2023-07-20T23:13:21;6.53;;;3.72;;
60935;SDS011;46804;51.786;19.520;2023-07-20T23:17:25;7.65;;;4.18;;
60935;SDS011;46804;51.786;19.520;2023-07-20T23:21:25;5.65;;;3.90;;
60935;SDS011;46804;51.786;19.520;2023-07-20T23:25:28;6.45;;;3.65;;
60935;SDS011;46804;51.786;19.520;2023-07-20T23:29:29;5.72;;;3.70;;
60935;SDS011;46804;51.786;19.520;2023-07-20T23:33:29;7.00;;;3.45;;
60935;SDS011;46804;51.786;19.520;2023-07-20T23:37:30;9.63;;;3.92;;
60935;SDS011;46804;51.786;19.520;2023-07-20T23:41:31;8.98;;;3.97;;
60935;SDS011;46804;51.786;19.520;2023-07-20T23:45:31;6.72;;;3.30;;
60935;SDS011;46804;51.786;19.520;2023-07-20T23:49:32;6.03;;;3.42;;
60935;SDS011;46804;51.786;19.520;2023-07-20T23:53:33;8.55;;;3.53;;
60935;SDS011;46804;51.786;19.520;2023-07-20T23:57:36;6.80;;;3.50;;
